Decoded Metar for KMGM (MONTGOMERY in AL, USA) (IATA:MGM) | Meteo·Mobile Aviation Weather
aviador You're here:

KMGM Decoded Metar

MONTGOMERY in AL, USA
Report Time2018-08-22 06:53:00
UTC Time2018-08-22 06:57:26
Flight Rules vfr VFR
WindCalm
Visibility9999 m
Phenomena:N/A
Clouds:Broken 070 Hf
Expected CloudBase > 400 ft AGL from Temp-Dew spread
Ceiling7,000 ft
Temp24°C (ISA +9)
Dew Point23°C (94% RH)
QNH1017 hPa
Density Alt1,535 ft
Elevation207 ft
Report Wrong Elevation
Raw Report
METAR KMGM 220653Z AUTO 00000KT 8SM BKN070 24/23 A3002 RMK AO2
SLP164 T02440233=

Extra information for KMGM:More info

Metar Taf Metar & Taf Last 4 Metars F.Rules Stats Wind Profile Meteogram Temp Stats Airport Information Weather charts Add Link Nearby VenuesMetar ALERT Operation Metar Decoded Social comments

AIRNAV info for KMGM